sensor_id;sensor_type;location;lat;lon;timestamp;temperature;humidity
78775;DHT22;68119;43.398;3.676;2023-03-01T00:00:16;4.70;53.20
78775;DHT22;68119;43.398;3.676;2023-03-01T00:02:47;4.70;53.20
78775;DHT22;68119;43.398;3.676;2023-03-01T00:05:23;4.70;53.10
78775;DHT22;68119;43.398;3.676;2023-03-01T00:07:58;4.70;53.00
78775;DHT22;68119;43.398;3.676;2023-03-01T00:10:29;4.70;53.20
78775;DHT22;68119;43.398;3.676;2023-03-01T00:12:58;4.70;53.20
78775;DHT22;68119;43.398;3.676;2023-03-01T00:15:26;4.70;53.10
78775;DHT22;68119;43.398;3.676;2023-03-01T00:17:57;4.70;53.00
78775;DHT22;68119;43.398;3.676;2023-03-01T00:20:25;4.70;53.60
78775;DHT22;68119;43.398;3.676;2023-03-01T00:22:53;4.70;53.40
78775;DHT22;68119;43.398;3.676;2023-03-01T00:25:22;4.70;53.10
78775;DHT22;68119;43.398;3.676;2023-03-01T00:27:47;4.70;53.40
78775;DHT22;68119;43.398;3.676;2023-03-01T00:30:15;4.70;53.40
78775;DHT22;68119;43.398;3.676;2023-03-01T00:32:47;4.60;53.50
78775;DHT22;68119;43.398;3.676;2023-03-01T00:35:15;4.60;53.30
78775;DHT22;68119;43.398;3.676;2023-03-01T00:37:46;4.60;53.60
78775;DHT22;68119;43.398;3.676;2023-03-01T00:40:30;4.60;53.40
78775;DHT22;68119;43.398;3.676;2023-03-01T00:43:00;4.50;53.40
78775;DHT22;68119;43.398;3.676;2023-03-01T00:45:30;4.50;53.60
78775;DHT22;68119;43.398;3.676;2023-03-01T00:48:04;4.50;53.50
78775;DHT22;68119;43.398;3.676;2023-03-01T00:50:30;4.50;53.60
78775;DHT22;68119;43.398;3.676;2023-03-01T00:52:59;4.50;53.40
78775;DHT22;68119;43.398;3.676;2023-03-01T00:55:28;4.40;53.50
78775;DHT22;68119;43.398;3.676;2023-03-01T00:57:56;4.40;53.00
78775;DHT22;68119;43.398;3.676;2023-03-01T01:00:27;4.40;53.40
78775;DHT22;68119;43.398;3.676;2023-03-01T01:02:53;4.40;53.50
78775;DHT22;68119;43.398;3.676;2023-03-01T01:05:24;4.30;53.60
78775;DHT22;68119;43.398;3.676;2023-03-01T01:07:49;4.30;53.70
78775;DHT22;68119;43.398;3.676;2023-03-01T01:10:20;4.30;53.50
78775;DHT22;68119;43.398;3.676;2023-03-01T01:12:48;4.20;53.70
78775;DHT22;68119;43.398;3.676;2023-03-01T01:15:16;4.30;53.40
78775;DHT22;68119;43.398;3.676;2023-03-01T01:17:50;4.30;53.50
78775;DHT22;68119;43.398;3.676;2023-03-01T01:20:18;4.30;53.20
78775;DHT22;68119;43.398;3.676;2023-03-01T01:22:46;4.30;53.20
78775;DHT22;68119;43.398;3.676;2023-03-01T01:25:12;4.30;53.40
78775;DHT22;68119;43.398;3.676;2023-03-01T01:27:40;4.30;53.20
78775;DHT22;68119;43.398;3.676;2023-03-01T01:30:06;4.30;53.20
78775;DHT22;68119;43.398;3.676;2023-03-01T01:32:35;4.40;53.40
78775;DHT22;68119;43.398;3.676;2023-03-01T01:35:03;4.40;53.30
78775;DHT22;68119;43.398;3.676;2023-03-01T01:37:31;4.40;53.00
78775;DHT22;68119;43.398;3.676;2023-03-01T01:40:03;4.40;53.10
78775;DHT22;68119;43.398;3.676;2023-03-01T01:42:32;4.40;53.20
78775;DHT22;68119;43.398;3.676;2023-03-01T01:48:10;4.30;52.90
78775;DHT22;68119;43.398;3.676;2023-03-01T01:50:51;4.30;53.00
78775;DHT22;68119;43.398;3.676;2023-03-01T01:53:19;4.30;53.30
78775;DHT22;68119;43.398;3.676;2023-03-01T01:55:49;4.30;52.70
78775;DHT22;68119;43.398;3.676;2023-03-01T01:58:19;4.30;52.50
78775;DHT22;68119;43.398;3.676;2023-03-01T02:00:51;4.30;52.50
78775;DHT22;68119;43.398;3.676;2023-03-01T02:03:22;4.30;52.80
78775;DHT22;68119;43.398;3.676;2023-03-01T02:05:56;4.30;52.90
78775;DHT22;68119;43.398;3.676;2023-03-01T02:08:30;4.30;53.00
78775;DHT22;68119;43.398;3.676;2023-03-01T02:10:58;4.20;52.40
78775;DHT22;68119;43.398;3.676;2023-03-01T02:13:31;4.20;52.30
78775;DHT22;68119;43.398;3.676;2023-03-01T02:16:05;4.20;52.80
78775;DHT22;68119;43.398;3.676;2023-03-01T02:18:38;4.10;52.90
78775;DHT22;68119;43.398;3.676;2023-03-01T02:23:44;4.10;52.30
78775;DHT22;68119;43.398;3.676;2023-03-01T02:26:42;4.10;52.40
78775;DHT22;68119;43.398;3.676;2023-03-01T02:29:13;4.00;52.50
78775;DHT22;68119;43.398;3.676;2023-03-01T02:31:41;4.10;52.50
78775;DHT22;68119;43.398;3.676;2023-03-01T02:34:21;4.10;52.60
78775;DHT22;68119;43.398;3.676;2023-03-01T02:37:04;4.00;52.70
78775;DHT22;68119;43.398;3.676;2023-03-01T02:39:44;3.90;53.00
78775;DHT22;68119;43.398;3.676;2023-03-01T02:42:17;3.90;52.70
78775;DHT22;68119;43.398;3.676;2023-03-01T02:44:53;3.90;52.60
78775;DHT22;68119;43.398;3.676;2023-03-01T02:47:23;3.90;52.90
78775;DHT22;68119;43.398;3.676;2023-03-01T02:49:51;3.90;52.90
78775;DHT22;68119;43.398;3.676;2023-03-01T02:52:28;3.90;53.20
78775;DHT22;68119;43.398;3.676;2023-03-01T02:55:17;3.90;53.60
78775;DHT22;68119;43.398;3.676;2023-03-01T02:57:45;3.90;52.70
78775;DHT22;68119;43.398;3.676;2023-03-01T03:00:29;3.90;52.90
78775;DHT22;68119;43.398;3.676;2023-03-01T03:02:58;3.80;53.50
78775;DHT22;68119;43.398;3.676;2023-03-01T03:05:30;3.80;53.60
78775;DHT22;68119;43.398;3.676;2023-03-01T03:08:02;3.90;54.00
78775;DHT22;68119;43.398;3.676;2023-03-01T03:10:40;3.80;53.60
78775;DHT22;68119;43.398;3.676;2023-03-01T03:13:17;3.70;53.50
78775;DHT22;68119;43.398;3.676;2023-03-01T03:15:50;3.90;52.90
78775;DHT22;68119;43.398;3.676;2023-03-01T03:18:17;3.90;52.80
78775;DHT22;68119;43.398;3.676;2023-03-01T03:20:48;3.90;53.20
78775;DHT22;68119;43.398;3.676;2023-03-01T03:23:19;3.90;53.20
78775;DHT22;68119;43.398;3.676;2023-03-01T03:25:53;3.90;53.10
78775;DHT22;68119;43.398;3.676;2023-03-01T03:28:21;3.90;53.10
78775;DHT22;68119;43.398;3.676;2023-03-01T03:30:49;3.90;53.10
78775;DHT22;68119;43.398;3.676;2023-03-01T03:33:15;3.90;53.30
78775;DHT22;68119;43.398;3.676;2023-03-01T03:35:47;3.90;53.20
78775;DHT22;68119;43.398;3.676;2023-03-01T03:38:17;3.90;53.40
78775;DHT22;68119;43.398;3.676;2023-03-01T03:40:47;3.90;53.60
78775;DHT22;68119;43.398;3.676;2023-03-01T03:43:18;3.90;53.50
78775;DHT22;68119;43.398;3.676;2023-03-01T03:45:46;3.90;53.70
78775;DHT22;68119;43.398;3.676;2023-03-01T03:48:17;4.00;53.20
78775;DHT22;68119;43.398;3.676;2023-03-01T03:50:51;3.90;53.70
78775;DHT22;68119;43.398;3.676;2023-03-01T03:53:21;4.00;53.60
78775;DHT22;68119;43.398;3.676;2023-03-01T03:55:47;3.90;54.00
78775;DHT22;68119;43.398;3.676;2023-03-01T03:58:20;4.00;53.80
78775;DHT22;68119;43.398;3.676;2023-03-01T04:00:53;3.90;54.00
78775;DHT22;68119;43.398;3.676;2023-03-01T04:03:20;3.90;53.60
78775;DHT22;68119;43.398;3.676;2023-03-01T04:05:49;3.90;53.80
78775;DHT22;68119;43.398;3.676;2023-03-01T04:08:16;3.90;54.00
78775;DHT22;68119;43.398;3.676;2023-03-01T04:10:50;4.00;53.60
78775;DHT22;68119;43.398;3.676;2023-03-01T04:13:22;3.90;53.40
78775;DHT22;68119;43.398;3.676;2023-03-01T04:15:53;4.00;53.70
78775;DHT22;68119;43.398;3.676;2023-03-01T04:18:21;4.00;53.70
78775;DHT22;68119;43.398;3.676;2023-03-01T04:20:50;4.00;54.00
78775;DHT22;68119;43.398;3.676;2023-03-01T04:23:20;4.00;53.30
78775;DHT22;68119;43.398;3.676;2023-03-01T04:25:55;4.00;53.60
78775;DHT22;68119;43.398;3.676;2023-03-01T04:28:35;4.00;53.60
78775;DHT22;68119;43.398;3.676;2023-03-01T04:31:07;4.00;53.10
78775;DHT22;68119;43.398;3.676;2023-03-01T04:33:46;4.10;53.00
78775;DHT22;68119;43.398;3.676;2023-03-01T04:36:18;4.10;53.00
78775;DHT22;68119;43.398;3.676;2023-03-01T04:38:47;4.10;53.60
78775;DHT22;68119;43.398;3.676;2023-03-01T04:41:18;4.00;53.10
78775;DHT22;68119;43.398;3.676;2023-03-01T04:43:44;4.00;53.10
78775;DHT22;68119;43.398;3.676;2023-03-01T04:46:17;4.00;53.30
78775;DHT22;68119;43.398;3.676;2023-03-01T04:48:44;4.00;53.20
78775;DHT22;68119;43.398;3.676;2023-03-01T04:51:13;3.90;53.40
78775;DHT22;68119;43.398;3.676;2023-03-01T04:53:42;4.00;53.40
78775;DHT22;68119;43.398;3.676;2023-03-01T04:56:11;3.90;53.20
78775;DHT22;68119;43.398;3.676;2023-03-01T04:58:41;3.90;53.20
78775;DHT22;68119;43.398;3.676;2023-03-01T05:01:15;3.90;53.10
78775;DHT22;68119;43.398;3.676;2023-03-01T05:03:56;3.90;53.30
78775;DHT22;68119;43.398;3.676;2023-03-01T05:06:31;3.90;53.40
78775;DHT22;68119;43.398;3.676;2023-03-01T05:09:01;3.90;53.40
78775;DHT22;68119;43.398;3.676;2023-03-01T05:11:29;3.90;53.10
78775;DHT22;68119;43.398;3.676;2023-03-01T05:13:59;3.90;53.50
78775;DHT22;68119;43.398;3.676;2023-03-01T05:16:29;3.90;53.40
78775;DHT22;68119;43.398;3.676;2023-03-01T05:19:03;3.90;53.50
78775;DHT22;68119;43.398;3.676;2023-03-01T05:21:47;3.90;53.10
78775;DHT22;68119;43.398;3.676;2023-03-01T05:24:38;3.90;53.60
78775;DHT22;68119;43.398;3.676;2023-03-01T05:27:06;3.90;53.20
78775;DHT22;68119;43.398;3.676;2023-03-01T05:29:37;3.90;53.20
78775;DHT22;68119;43.398;3.676;2023-03-01T05:32:07;3.90;53.60
78775;DHT22;68119;43.398;3.676;2023-03-01T05:34:44;3.80;52.90
78775;DHT22;68119;43.398;3.676;2023-03-01T05:37:17;3.70;53.10
78775;DHT22;68119;43.398;3.676;2023-03-01T05:39:48;3.70;53.20
78775;DHT22;68119;43.398;3.676;2023-03-01T05:42:17;3.70;53.30
78775;DHT22;68119;43.398;3.676;2023-03-01T05:44:50;3.70;53.20
78775;DHT22;68119;43.398;3.676;2023-03-01T05:47:18;3.70;53.20
78775;DHT22;68119;43.398;3.676;2023-03-01T05:49:46;3.60;53.40
78775;DHT22;68119;43.398;3.676;2023-03-01T05:52:15;3.60;54.30
78775;DHT22;68119;43.398;3.676;2023-03-01T05:54:46;3.60;53.40
78775;DHT22;68119;43.398;3.676;2023-03-01T05:57:16;3.60;53.50
78775;DHT22;68119;43.398;3.676;2023-03-01T05:59:47;3.60;54.00
78775;DHT22;68119;43.398;3.676;2023-03-01T06:02:22;3.60;54.30
78775;DHT22;68119;43.398;3.676;2023-03-01T06:04:51;3.60;54.40
78775;DHT22;68119;43.398;3.676;2023-03-01T06:07:25;3.60;54.20
78775;DHT22;68119;43.398;3.676;2023-03-01T06:09:51;3.60;54.10
78775;DHT22;68119;43.398;3.676;2023-03-01T06:12:19;3.60;54.50
78775;DHT22;68119;43.398;3.676;2023-03-01T06:14:53;3.60;54.20
78775;DHT22;68119;43.398;3.676;2023-03-01T06:17:22;3.60;53.80
78775;DHT22;68119;43.398;3.676;2023-03-01T06:19:52;3.60;53.80
78775;DHT22;68119;43.398;3.676;2023-03-01T06:22:26;3.60;53.60
78775;DHT22;68119;43.398;3.676;2023-03-01T06:24:52;3.60;53.70
78775;DHT22;68119;43.398;3.676;2023-03-01T06:27:23;3.50;53.80
78775;DHT22;68119;43.398;3.676;2023-03-01T06:29:51;3.50;53.70
78775;DHT22;68119;43.398;3.676;2023-03-01T06:32:24;3.50;53.60
78775;DHT22;68119;43.398;3.676;2023-03-01T06:34:52;3.60;54.00
78775;DHT22;68119;43.398;3.676;2023-03-01T06:37:24;3.50;53.90
78775;DHT22;68119;43.398;3.676;2023-03-01T06:39:55;3.50;54.10
78775;DHT22;68119;43.398;3.676;2023-03-01T06:42:23;3.50;54.10
78775;DHT22;68119;43.398;3.676;2023-03-01T06:44:56;3.50;53.70
78775;DHT22;68119;43.398;3.676;2023-03-01T06:47:27;3.50;54.00
78775;DHT22;68119;43.398;3.676;2023-03-01T06:49:59;3.60;53.60
78775;DHT22;68119;43.398;3.676;2023-03-01T06:52:28;3.60;53.30
78775;DHT22;68119;43.398;3.676;2023-03-01T06:54:54;3.60;53.40
78775;DHT22;68119;43.398;3.676;2023-03-01T06:57:25;3.60;53.30
78775;DHT22;68119;43.398;3.676;2023-03-01T06:59:53;3.70;53.30
78775;DHT22;68119;43.398;3.676;2023-03-01T07:02:22;3.60;53.70
78775;DHT22;68119;43.398;3.676;2023-03-01T07:04:54;3.70;53.40
78775;DHT22;68119;43.398;3.676;2023-03-01T07:07:30;3.70;53.50
78775;DHT22;68119;43.398;3.676;2023-03-01T07:10:02;3.80;53.70
78775;DHT22;68119;43.398;3.676;2023-03-01T07:12:30;3.70;53.50
78775;DHT22;68119;43.398;3.676;2023-03-01T07:14:55;3.80;53.40
78775;DHT22;68119;43.398;3.676;2023-03-01T07:17:23;3.90;53.50
78775;DHT22;68119;43.398;3.676;2023-03-01T07:19:54;3.90;53.30
78775;DHT22;68119;43.398;3.676;2023-03-01T07:22:27;3.90;53.20
78775;DHT22;68119;43.398;3.676;2023-03-01T07:24:53;3.90;53.00
78775;DHT22;68119;43.398;3.676;2023-03-01T07:27:29;3.90;53.00
78775;DHT22;68119;43.398;3.676;2023-03-01T07:29:57;4.00;53.20
78775;DHT22;68119;43.398;3.676;2023-03-01T07:32:23;4.00;52.80
78775;DHT22;68119;43.398;3.676;2023-03-01T07:34:52;4.20;52.80
78775;DHT22;68119;43.398;3.676;2023-03-01T07:37:22;4.20;52.60
78775;DHT22;68119;43.398;3.676;2023-03-01T07:39:51;4.30;52.90
78775;DHT22;68119;43.398;3.676;2023-03-01T07:42:19;4.40;52.70
78775;DHT22;68119;43.398;3.676;2023-03-01T07:44:53;4.50;52.20
78775;DHT22;68119;43.398;3.676;2023-03-01T07:47:21;4.50;51.60
78775;DHT22;68119;43.398;3.676;2023-03-01T07:49:52;4.70;51.60
78775;DHT22;68119;43.398;3.676;2023-03-01T07:52:22;4.70;52.20
78775;DHT22;68119;43.398;3.676;2023-03-01T07:54:50;4.90;51.10
78775;DHT22;68119;43.398;3.676;2023-03-01T07:57:24;5.10;50.80
78775;DHT22;68119;43.398;3.676;2023-03-01T07:59:52;5.00;50.70
78775;DHT22;68119;43.398;3.676;2023-03-01T08:02:21;5.20;50.70
78775;DHT22;68119;43.398;3.676;2023-03-01T08:04:49;5.30;51.10
78775;DHT22;68119;43.398;3.676;2023-03-01T08:07:17;5.40;51.00
78775;DHT22;68119;43.398;3.676;2023-03-01T08:09:46;5.50;51.10
78775;DHT22;68119;43.398;3.676;2023-03-01T08:12:14;5.60;50.60
78775;DHT22;68119;43.398;3.676;2023-03-01T08:14:42;5.80;50.50
78775;DHT22;68119;43.398;3.676;2023-03-01T08:17:10;6.10;50.40
78775;DHT22;68119;43.398;3.676;2023-03-01T08:19:38;6.00;49.90
78775;DHT22;68119;43.398;3.676;2023-03-01T08:22:06;6.50;49.90
78775;DHT22;68119;43.398;3.676;2023-03-01T08:24:32;7.20;48.70
78775;DHT22;68119;43.398;3.676;2023-03-01T08:27:06;8.50;47.90
78775;DHT22;68119;43.398;3.676;2023-03-01T08:29:38;9.20;44.70
78775;DHT22;68119;43.398;3.676;2023-03-01T08:32:04;9.70;45.20
78775;DHT22;68119;43.398;3.676;2023-03-01T08:34:36;9.40;44.80
78775;DHT22;68119;43.398;3.676;2023-03-01T08:37:04;10.40;43.90
78775;DHT22;68119;43.398;3.676;2023-03-01T08:39:36;10.80;43.40
78775;DHT22;68119;43.398;3.676;2023-03-01T08:42:07;10.30;44.20
78775;DHT22;68119;43.398;3.676;2023-03-01T08:44:38;8.40;44.80
78775;DHT22;68119;43.398;3.676;2023-03-01T08:47:11;9.20;45.10
78775;DHT22;68119;43.398;3.676;2023-03-01T08:49:45;10.90;42.40
78775;DHT22;68119;43.398;3.676;2023-03-01T08:52:14;11.30;43.30
78775;DHT22;68119;43.398;3.676;2023-03-01T08:54:41;11.50;42.60
78775;DHT22;68119;43.398;3.676;2023-03-01T08:57:10;10.20;43.50
78775;DHT22;68119;43.398;3.676;2023-03-01T08:59:36;11.40;42.90
78775;DHT22;68119;43.398;3.676;2023-03-01T09:02:17;11.50;42.40
78775;DHT22;68119;43.398;3.676;2023-03-01T09:04:50;11.50;42.50
78775;DHT22;68119;43.398;3.676;2023-03-01T09:07:21;12.30;41.20
78775;DHT22;68119;43.398;3.676;2023-03-01T09:09:56;13.20;40.80
78775;DHT22;68119;43.398;3.676;2023-03-01T09:12:24;14.20;39.20
78775;DHT22;68119;43.398;3.676;2023-03-01T09:14:58;14.20;39.00
78775;DHT22;68119;43.398;3.676;2023-03-01T09:17:26;13.50;39.20
78775;DHT22;68119;43.398;3.676;2023-03-01T09:19:54;11.10;41.20
78775;DHT22;68119;43.398;3.676;2023-03-01T09:22:25;12.10;42.10
78775;DHT22;68119;43.398;3.676;2023-03-01T09:24:50;14.00;39.50
78775;DHT22;68119;43.398;3.676;2023-03-01T09:27:27;15.00;38.20
78775;DHT22;68119;43.398;3.676;2023-03-01T09:29:58;14.90;38.20
78775;DHT22;68119;43.398;3.676;2023-03-01T09:32:30;15.80;37.80
78775;DHT22;68119;43.398;3.676;2023-03-01T09:35:00;16.50;37.20
78775;DHT22;68119;43.398;3.676;2023-03-01T09:37:34;17.00;36.20
78775;DHT22;68119;43.398;3.676;2023-03-01T09:40:08;17.20;36.30
78775;DHT22;68119;43.398;3.676;2023-03-01T09:43:29;17.80;35.70
78775;DHT22;68119;43.398;3.676;2023-03-01T09:45:41;19.10;34.70
78775;DHT22;68119;43.398;3.676;2023-03-01T09:48:19;19.00;34.60
78775;DHT22;68119;43.398;3.676;2023-03-01T09:50:51;18.10;34.60
78775;DHT22;68119;43.398;3.676;2023-03-01T09:53:22;18.70;34.80
78775;DHT22;68119;43.398;3.676;2023-03-01T09:55:55;17.00;35.20
78775;DHT22;68119;43.398;3.676;2023-03-01T10:03:44;12.70;40.30
78775;DHT22;68119;43.398;3.676;2023-03-01T10:06:20;11.70;41.50
78775;DHT22;68119;43.398;3.676;2023-03-01T10:09:02;10.40;43.10
78775;DHT22;68119;43.398;3.676;2023-03-01T10:11:41;9.60;43.60
78775;DHT22;68119;43.398;3.676;2023-03-01T10:17:09;9.00;44.60
78775;DHT22;68119;43.398;3.676;2023-03-01T10:19:50;9.10;44.70
78775;DHT22;68119;43.398;3.676;2023-03-01T10:22:28;9.40;44.60
78775;DHT22;68119;43.398;3.676;2023-03-01T10:24:59;9.40;44.80
78775;DHT22;68119;43.398;3.676;2023-03-01T10:27:40;9.10;44.70
78775;DHT22;68119;43.398;3.676;2023-03-01T10:30:19;8.90;44.90
78775;DHT22;68119;43.398;3.676;2023-03-01T10:32:51;8.80;45.40
78775;DHT22;68119;43.398;3.676;2023-03-01T10:35:28;9.00;45.10
78775;DHT22;68119;43.398;3.676;2023-03-01T10:38:13;9.20;45.40
78775;DHT22;68119;43.398;3.676;2023-03-01T10:43:29;9.20;45.30
78775;DHT22;68119;43.398;3.676;2023-03-01T10:46:02;9.80;44.80
78775;DHT22;68119;43.398;3.676;2023-03-01T10:48:29;9.80;44.20
78775;DHT22;68119;43.398;3.676;2023-03-01T10:53:37;10.30;43.70
78775;DHT22;68119;43.398;3.676;2023-03-01T10:58:38;10.60;43.80
78775;DHT22;68119;43.398;3.676;2023-03-01T11:06:38;10.20;44.50
78775;DHT22;68119;43.398;3.676;2023-03-01T11:09:21;10.40;43.60
78775;DHT22;68119;43.398;3.676;2023-03-01T11:11:58;10.50;44.10
78775;DHT22;68119;43.398;3.676;2023-03-01T11:14:27;11.10;43.80
78775;DHT22;68119;43.398;3.676;2023-03-01T11:17:12;11.70;43.40
78775;DHT22;68119;43.398;3.676;2023-03-01T11:20:00;11.90;42.50
78775;DHT22;68119;43.398;3.676;2023-03-01T11:22:26;12.00;42.30
78775;DHT22;68119;43.398;3.676;2023-03-01T11:24:58;11.80;41.90
78775;DHT22;68119;43.398;3.676;2023-03-01T11:27:36;12.10;41.90
78775;DHT22;68119;43.398;3.676;2023-03-01T11:33:52;12.80;41.30
78775;DHT22;68119;43.398;3.676;2023-03-01T11:36:26;13.70;40.20
78775;DHT22;68119;43.398;3.676;2023-03-01T11:38:53;15.80;39.30
78775;DHT22;68119;43.398;3.676;2023-03-01T11:41:31;20.30;34.40
78775;DHT22;68119;43.398;3.676;2023-03-01T11:44:04;21.10;33.90
78775;DHT22;68119;43.398;3.676;2023-03-01T12:11:17;25.80;29.30
78775;DHT22;68119;43.398;3.676;2023-03-01T12:22:35;22.10;30.50
78775;DHT22;68119;43.398;3.676;2023-03-01T12:25:16;18.80;32.90
78775;DHT22;68119;43.398;3.676;2023-03-01T12:39:58;18.00;33.00
78775;DHT22;68119;43.398;3.676;2023-03-01T12:51:02;14.50;36.90
78775;DHT22;68119;43.398;3.676;2023-03-01T12:56:15;16.90;35.50
78775;DHT22;68119;43.398;3.676;2023-03-01T13:01:36;21.50;32.00
78775;DHT22;68119;43.398;3.676;2023-03-01T13:07:16;22.80;31.50
78775;DHT22;68119;43.398;3.676;2023-03-01T13:15:34;23.60;30.10
78775;DHT22;68119;43.398;3.676;2023-03-01T13:20:55;21.40;31.10
78775;DHT22;68119;43.398;3.676;2023-03-01T13:23:39;26.10;29.10
78775;DHT22;68119;43.398;3.676;2023-03-01T13:26:16;28.60;27.10
78775;DHT22;68119;43.398;3.676;2023-03-01T13:28:51;26.50;27.80
78775;DHT22;68119;43.398;3.676;2023-03-01T13:34:51;26.00;28.80
78775;DHT22;68119;43.398;3.676;2023-03-01T13:37:23;27.50;27.70
78775;DHT22;68119;43.398;3.676;2023-03-01T13:39:54;28.90;27.00
78775;DHT22;68119;43.398;3.676;2023-03-01T13:42:40;29.90;27.00
78775;DHT22;68119;43.398;3.676;2023-03-01T14:06:23;-8.30;20.10
78775;DHT22;68119;43.398;3.676;2023-03-01T14:09:36;-35.40;11.00
78775;DHT22;68119;43.398;3.676;2023-03-01T14:19:26;28.70;26.50
78775;DHT22;68119;43.398;3.676;2023-03-01T14:22:25;30.20;25.60
78775;DHT22;68119;43.398;3.676;2023-03-01T14:25:05;29.90;25.70
78775;DHT22;68119;43.398;3.676;2023-03-01T14:27:41;25.90;27.50
78775;DHT22;68119;43.398;3.676;2023-03-01T14:30:26;24.60;29.00
78775;DHT22;68119;43.398;3.676;2023-03-01T14:33:01;24.60;28.60
78775;DHT22;68119;43.398;3.676;2023-03-01T14:35:35;25.40;27.90
78775;DHT22;68119;43.398;3.676;2023-03-01T14:38:02;24.80;28.30
78775;DHT22;68119;43.398;3.676;2023-03-01T14:42:59;25.70;27.60
78775;DHT22;68119;43.398;3.676;2023-03-01T14:45:27;26.40;27.40
78775;DHT22;68119;43.398;3.676;2023-03-01T14:48:02;25.10;27.60
78775;DHT22;68119;43.398;3.676;2023-03-01T14:50:32;24.00;29.10
78775;DHT22;68119;43.398;3.676;2023-03-01T14:53:06;25.20;28.70
78775;DHT22;68119;43.398;3.676;2023-03-01T14:55:48;27.40;27.90
78775;DHT22;68119;43.398;3.676;2023-03-01T14:58:24;27.00;27.70
78775;DHT22;68119;43.398;3.676;2023-03-01T15:00:58;26.50;27.80
78775;DHT22;68119;43.398;3.676;2023-03-01T15:03:50;25.00;28.40
78775;DHT22;68119;43.398;3.676;2023-03-01T15:06:20;25.60;27.80
78775;DHT22;68119;43.398;3.676;2023-03-01T15:08:57;23.60;29.30
78775;DHT22;68119;43.398;3.676;2023-03-01T15:11:28;22.90;29.40
78775;DHT22;68119;43.398;3.676;2023-03-01T15:13:59;19.70;31.40
78775;DHT22;68119;43.398;3.676;2023-03-01T15:16:39;21.70;30.80
78775;DHT22;68119;43.398;3.676;2023-03-01T15:19:18;22.40;30.50
78775;DHT22;68119;43.398;3.676;2023-03-01T15:21:50;22.30;30.70
78775;DHT22;68119;43.398;3.676;2023-03-01T15:24:28;22.50;30.40
78775;DHT22;68119;43.398;3.676;2023-03-01T15:27:12;21.20;30.80
78775;DHT22;68119;43.398;3.676;2023-03-01T15:29:58;20.30;32.10
78775;DHT22;68119;43.398;3.676;2023-03-01T15:32:36;20.00;32.70
78775;DHT22;68119;43.398;3.676;2023-03-01T15:41:31;18.40;33.20
78775;DHT22;68119;43.398;3.676;2023-03-01T15:44:23;18.40;33.10
78775;DHT22;68119;43.398;3.676;2023-03-01T15:47:01;17.80;33.80
78775;DHT22;68119;43.398;3.676;2023-03-01T15:49:40;17.80;34.10
78775;DHT22;68119;43.398;3.676;2023-03-01T15:52:34;18.40;34.00
78775;DHT22;68119;43.398;3.676;2023-03-01T15:55:19;17.70;34.30
78775;DHT22;68119;43.398;3.676;2023-03-01T15:57:50;18.10;34.10
78775;DHT22;68119;43.398;3.676;2023-03-01T16:00:33;18.00;34.30
78775;DHT22;68119;43.398;3.676;2023-03-01T16:03:08;18.70;34.30
78775;DHT22;68119;43.398;3.676;2023-03-01T16:05:38;18.50;34.40
78775;DHT22;68119;43.398;3.676;2023-03-01T16:08:07;17.80;35.20
78775;DHT22;68119;43.398;3.676;2023-03-01T16:10:38;17.50;35.90
78775;DHT22;68119;43.398;3.676;2023-03-01T16:13:20;16.60;36.90
78775;DHT22;68119;43.398;3.676;2023-03-01T16:15:55;16.20;36.90
78775;DHT22;68119;43.398;3.676;2023-03-01T16:18:28;16.40;37.20
78775;DHT22;68119;43.398;3.676;2023-03-01T16:21:02;15.60;36.90
78775;DHT22;68119;43.398;3.676;2023-03-01T16:23:38;15.50;37.40
78775;DHT22;68119;43.398;3.676;2023-03-01T16:26:12;15.20;37.30
78775;DHT22;68119;43.398;3.676;2023-03-01T16:28:53;14.70;37.50
78775;DHT22;68119;43.398;3.676;2023-03-01T16:31:25;14.40;38.40
78775;DHT22;68119;43.398;3.676;2023-03-01T16:34:02;14.40;38.60
78775;DHT22;68119;43.398;3.676;2023-03-01T16:36:36;14.00;39.10
78775;DHT22;68119;43.398;3.676;2023-03-01T16:39:09;13.80;39.70
78775;DHT22;68119;43.398;3.676;2023-03-01T16:41:42;13.60;40.00
78775;DHT22;68119;43.398;3.676;2023-03-01T16:44:14;13.60;40.80
78775;DHT22;68119;43.398;3.676;2023-03-01T16:46:42;13.70;40.70
78775;DHT22;68119;43.398;3.676;2023-03-01T16:49:14;13.30;40.50
78775;DHT22;68119;43.398;3.676;2023-03-01T16:51:39;12.80;41.20
78775;DHT22;68119;43.398;3.676;2023-03-01T16:54:08;12.60;41.30
78775;DHT22;68119;43.398;3.676;2023-03-01T16:56:37;12.70;41.50
78775;DHT22;68119;43.398;3.676;2023-03-01T16:59:05;12.50;41.30
78775;DHT22;68119;43.398;3.676;2023-03-01T17:01:33;12.30;41.30
78775;DHT22;68119;43.398;3.676;2023-03-01T17:04:00;12.10;41.60
78775;DHT22;68119;43.398;3.676;2023-03-01T17:06:28;12.00;42.00
78775;DHT22;68119;43.398;3.676;2023-03-01T17:08:57;11.70;42.50
78775;DHT22;68119;43.398;3.676;2023-03-01T17:11:25;11.70;42.70
78775;DHT22;68119;43.398;3.676;2023-03-01T17:13:56;11.70;42.70
78775;DHT22;68119;43.398;3.676;2023-03-01T17:16:25;11.50;43.50
78775;DHT22;68119;43.398;3.676;2023-03-01T17:18:56;11.10;44.20
78775;DHT22;68119;43.398;3.676;2023-03-01T17:21:27;11.00;45.00
78775;DHT22;68119;43.398;3.676;2023-03-01T17:24:01;10.70;44.50
78775;DHT22;68119;43.398;3.676;2023-03-01T17:26:32;10.30;45.00
78775;DHT22;68119;43.398;3.676;2023-03-01T17:29:03;10.20;45.90
78775;DHT22;68119;43.398;3.676;2023-03-01T17:31:32;10.10;46.20
78775;DHT22;68119;43.398;3.676;2023-03-01T17:34:01;10.00;46.30
78775;DHT22;68119;43.398;3.676;2023-03-01T17:36:29;9.70;46.50
78775;DHT22;68119;43.398;3.676;2023-03-01T17:39:11;9.60;46.20
78775;DHT22;68119;43.398;3.676;2023-03-01T17:41:40;9.50;46.50
78775;DHT22;68119;43.398;3.676;2023-03-01T17:44:07;9.40;47.10
78775;DHT22;68119;43.398;3.676;2023-03-01T17:46:40;9.40;47.00
78775;DHT22;68119;43.398;3.676;2023-03-01T17:49:08;9.20;47.40
78775;DHT22;68119;43.398;3.676;2023-03-01T17:51:39;9.20;47.10
78775;DHT22;68119;43.398;3.676;2023-03-01T17:54:07;9.10;47.10
78775;DHT22;68119;43.398;3.676;2023-03-01T17:56:44;9.00;47.20
78775;DHT22;68119;43.398;3.676;2023-03-01T17:59:15;9.00;47.50
78775;DHT22;68119;43.398;3.676;2023-03-01T18:01:49;8.80;47.90
78775;DHT22;68119;43.398;3.676;2023-03-01T18:04:22;8.80;47.90
78775;DHT22;68119;43.398;3.676;2023-03-01T18:06:58;8.70;48.00
78775;DHT22;68119;43.398;3.676;2023-03-01T18:09:26;8.60;48.40
78775;DHT22;68119;43.398;3.676;2023-03-01T18:11:55;8.50;48.60
78775;DHT22;68119;43.398;3.676;2023-03-01T18:14:23;8.40;48.70
78775;DHT22;68119;43.398;3.676;2023-03-01T18:16:51;8.40;49.00
78775;DHT22;68119;43.398;3.676;2023-03-01T18:19:25;8.30;49.00
78775;DHT22;68119;43.398;3.676;2023-03-01T18:21:53;8.20;49.30
78775;DHT22;68119;43.398;3.676;2023-03-01T18:24:28;8.20;49.50
78775;DHT22;68119;43.398;3.676;2023-03-01T18:26:56;8.10;49.80
78775;DHT22;68119;43.398;3.676;2023-03-01T18:29:25;8.10;49.70
78775;DHT22;68119;43.398;3.676;2023-03-01T18:31:53;8.00;50.00
78775;DHT22;68119;43.398;3.676;2023-03-01T18:34:19;8.00;50.10